Monday, October 16, 2017, 6:12 PM EDT
Back to Local

KMDT, Harrisburg International Airport

Location: Middletown, PA, United States Lat: 40.2
Local Time: 6:12 PM EDT (22:12 GMT) Lon: -76.767
Time Zone: US/Eastern Elev: 308 ft

Show me the last for .
Show Decoded

2017-10-16 16:56 METAR KMDT 162056Z 32013KT 10SM FEW055 17/01 A3010 RMK AO2 SLP194 T01670006
                 53005 $ =
2017-10-16 15:56 METAR KMDT 161956Z 33009KT 10SM FEW055 17/02 A3009 RMK AO2 SLP190 T01720017 $ =
2017-10-16 14:56 METAR KMDT 161856Z 35015G20KT 10SM FEW055 FEW250 17/02 A3009 RMK AO2 SLP188
                 T01720022 $ =
2017-10-16 13:56 METAR KMDT 161756Z 34011G19KT 10SM FEW042 SCT250 16/03 A3009 RMK AO2 SLP189
                 T01610033 10161 20128 58002 $ =
2017-10-16 12:56 METAR KMDT 161656Z 34017G20KT 10SM SCT042 BKN250 14/04 A3010 RMK AO2 SLP194
                 T01440039 $ =
2017-10-16 11:56 METAR KMDT 161556Z 32013G17KT 10SM BKN041 BKN250 14/05 A3009 RMK AO2 SLP190
                 T01390050 $ =
2017-10-16 10:56 METAR KMDT 161456Z 33010KT 10SM OVC040 13/06 A3009 RMK AO2 SLP191 T01330056
                 53020 =
2017-10-16 09:56 METAR KMDT 161356Z 36011KT 10SM OVC036 13/06 A3007 RMK AO2 SLP184 T01330056 =
2017-10-16 08:56 METAR KMDT 161256Z 31015KT 10SM SCT060 13/07 A3005 RMK AO2 SLP175 T01330067 =
2017-10-16 07:56 METAR KMDT 161156Z 31011KT 10SM BKN060 13/07 A3003 RMK AO2 SLP170 70003
                 T01330067 10172 20133 53035 =
2017-10-16 06:56 METAR KMDT 161056Z 31013KT 10SM BKN060 14/07 A2999 RMK AO2 SLP156 T01440072 =
2017-10-16 05:56 METAR KMDT 160956Z 31011KT 10SM OVC041 16/11 A2996 RMK AO2 SLP144 T01610111 =
2017-10-16 04:56 METAR KMDT 160856Z 32012KT 10SM OVC150 16/12 A2993 RMK AO2 SLP134 T01610122
                 53001 =
2017-10-16 03:56 METAR KMDT 160756Z 32014KT 10SM OVC140 17/12 A2992 RMK AO2 SLP131 T01670117 =
2017-10-16 02:56 METAR KMDT 160656Z 28004KT 10SM FEW080 OVC120 17/15 A2992 RMK AO2 SLP131
                 T01670150 =
2017-10-16 01:56 METAR KMDT 160556Z 29005KT 10SM OVC080 17/14 A2992 RMK AO2 RAE49 SLP132 P0000
                 60003 T01720144 10228 20172 51022 =
2017-10-16 00:56 METAR KMDT 160456Z 31006KT 10SM -RA FEW050 OVC080 17/14 A2990 RMK AO2 PK WND
                 30026/0402 SLP125 P0000 T01720144 402500167 =
2017-10-15 23:56 METAR KMDT 160356Z 30010KT 9SM -RA FEW015 BKN035 OVC070 19/18 A2988 RMK AO2
                 PRESRR SLP119 P0003 T01890183 =
2017-10-15 22:56 METAR KMDT 160256Z 31011KT 8SM -RA FEW022 SCT027 OVC046 20/19 A2986 RMK AO2 PK
                 WND 31027/0228 WSHFT 0221 RAB35 SLP111 P0000 60000 T02000189 53016 =
2017-10-15 22:35 METAR KMDT 160235Z 31015G27KT 10SM -RA BKN021 BKN070 OVC085 22/19 A2985 RMK AO2
                 PK WND 31027/0228 WSHFT 0221 RAB35 P0000 T02220189 =
2017-10-15 21:56 METAR KMDT 160156Z 20012G18KT 120V240 10SM BKN080 BKN095 22/18 A2980 RMK AO2
                 SLP090 T02220183 =
2017-10-15 20:56 METAR KMDT 160056Z 18009KT 10SM FEW070 SCT100 22/18 A2980 RMK AO2 SLP090
                 T02170183 =
2017-10-15 19:56 METAR KMDT 152356Z 19010KT 10SM FEW250 22/18 A2981 RMK AO2 SLP095 T02220183
                 10250 20222 55009 =
2017-10-15 18:56 METAR KMDT 152256Z 16010KT 10SM CLR 22/18 A2980 RMK AO2 SLP091 T02220183 =

Support USWX by starting your Amazon purchase here.